Time;durP1;ratioP1;P1;durP2;ratioP2;P2;SDS_P1;SDS_P2;PMS_P1;PMS_P2;Temp;Humidity;BMP_temperature;BMP_pressure;BME280_temperature;BME280_humidity;BME280_pressure;Samples;Min_cycle;Max_cycle;Signal;HPM_P1;HPM_P2
2022/05/20 00:00:18;;;;;;;2.43;1.97;;;19.80;99.90;;;;;;5012796;28;20211;-46
2022/05/20 00:02:47;;;;;;;2.53;2.33;;;19.80;99.90;;;;;;5013092;28;20739;-46
2022/05/20 00:05:14;;;;;;;1.90;1.83;;;19.70;99.90;;;;;;5013215;28;20776;-46
2022/05/20 00:07:41;;;;;;;3.67;2.03;;;19.70;99.90;;;;;;5012591;28;20318;-46
2022/05/20 00:10:09;;;;;;;2.30;2.17;;;19.70;99.90;;;;;;5012573;28;20273;-46
2022/05/20 00:12:37;;;;;;;2.60;2.40;;;19.80;99.90;;;;;;5012001;28;20250;-46
2022/05/20 00:15:06;;;;;;;3.03;1.93;;;19.80;99.90;;;;;;5010998;28;20257;-46
2022/05/20 00:17:33;;;;;;;2.27;2.07;;;19.80;99.90;;;;;;5013116;28;20223;-46
2022/05/20 00:20:01;;;;;;;2.10;2.00;;;19.80;99.90;;;;;;5011645;28;20203;-46
2022/05/20 00:22:28;;;;;;;2.40;2.30;;;19.80;99.90;;;;;;5011077;28;20211;-46
2022/05/20 00:27:40;;;;;;;4.23;2.63;;;19.70;99.90;;;;;;5009388;28;20230;-46
2022/05/20 00:30:08;;;;;;;2.37;2.27;;;19.80;99.90;;;;;;5008862;28;20266;-46
2022/05/20 00:32:35;;;;;;;2.00;2.00;;;19.80;99.90;;;;;;5008300;28;20203;-46
2022/05/20 00:35:04;;;;;;;4.50;1.90;;;19.80;99.90;;;;;;5011920;28;20199;-46
2022/05/20 00:37:32;;;;;;;2.10;2.00;;;19.80;99.90;;;;;;5011897;28;20231;-46
2022/05/20 00:39:59;;;;;;;2.90;2.70;;;19.80;99.90;;;;;;5010076;28;20250;-46
2022/05/20 00:42:27;;;;;;;2.07;1.93;;;19.80;99.90;;;;;;5011603;28;20735;-46
2022/05/20 00:44:54;;;;;;;2.27;2.10;;;19.80;99.90;;;;;;5012587;28;20316;-46
2022/05/20 00:47:21;;;;;;;2.00;2.00;;;19.80;99.90;;;;;;5010680;28;20759;-46
2022/05/20 00:49:53;;;;;;;2.23;1.87;;;19.80;99.90;;;;;;5010415;28;20207;-46
2022/05/20 00:52:28;;;;;;;2.07;1.83;;;19.70;99.90;;;;;;5006587;28;20204;-46
2022/05/20 00:55:00;;;;;;;2.00;1.90;;;19.70;99.90;;;;;;5009796;28;20253;-46
2022/05/20 00:57:33;;;;;;;3.03;2.80;;;19.60;99.90;;;;;;5006706;28;20219;-46
2022/05/20 01:00:07;;;;;;;2.03;1.70;;;19.60;99.90;;;;;;5010893;28;20210;-46
2022/05/20 01:02:35;;;;;;;3.00;2.27;;;19.50;99.90;;;;;;5011038;28;20219;-46
2022/05/20 01:05:06;;;;;;;2.57;2.10;;;19.50;99.90;;;;;;5010756;28;20630;-46
2022/05/20 01:07:39;;;;;;;3.33;2.00;;;19.50;99.90;;;;;;5008579;28;20235;-46
2022/05/20 01:10:08;;;;;;;2.17;2.07;;;19.50;99.90;;;;;;5009208;28;20203;-46
2022/05/20 01:12:35;;;;;;;2.10;1.87;;;19.40;99.90;;;;;;5011203;28;20207;-46
2022/05/20 01:15:03;;;;;;;1.67;1.40;;;19.40;99.90;;;;;;5010094;28;20195;-46
2022/05/20 01:17:30;;;;;;;1.93;1.87;;;19.40;99.90;;;;;;5009057;28;20265;-46
2022/05/20 01:19:58;;;;;;;2.30;2.10;;;19.40;99.90;;;;;;5009880;28;20207;-46
2022/05/20 01:22:28;;;;;;;2.23;2.03;;;19.40;99.90;;;;;;5010436;28;20254;-46
2022/05/20 01:24:57;;;;;;;2.60;1.80;;;19.40;99.90;;;;;;5011156;28;20249;-46
2022/05/20 01:27:24;;;;;;;2.50;2.30;;;19.40;99.90;;;;;;5010818;28;20303;-46
2022/05/20 01:29:51;;;;;;;2.13;2.00;;;19.40;99.90;;;;;;5011176;28;20203;-46
2022/05/20 01:32:18;;;;;;;2.17;2.07;;;19.40;99.90;;;;;;5009670;28;20203;-46
2022/05/20 01:34:45;;;;;;;2.33;1.90;;;19.40;99.90;;;;;;5011705;28;20207;-46
2022/05/20 01:37:12;;;;;;;2.03;1.83;;;19.40;99.90;;;;;;5010244;28;20298;-46
2022/05/20 01:39:42;;;;;;;5.17;2.27;;;19.30;99.90;;;;;;5007491;28;20242;-46
2022/05/20 01:42:16;;;;;;;1.50;1.50;;;19.30;99.90;;;;;;5009387;28;20199;-46
2022/05/20 01:44:50;;;;;;;1.87;1.87;;;19.30;99.90;;;;;;5008652;28;20218;-46
2022/05/20 01:47:23;;;;;;;2.63;2.13;;;19.30;99.90;;;;;;5007929;28;20223;-46
2022/05/20 01:49:55;;;;;;;2.07;1.97;;;19.30;99.90;;;;;;5009976;28;20210;-46
2022/05/20 01:52:29;;;;;;;3.17;2.63;;;19.30;99.90;;;;;;5010837;28;20207;-46
2022/05/20 01:55:03;;;;;;;1.87;1.77;;;19.40;99.90;;;;;;5010467;28;20261;-46
2022/05/20 01:57:37;;;;;;;2.30;2.20;;;19.30;99.90;;;;;;5004997;28;20242;-46
2022/05/20 02:00:08;;;;;;;2.43;2.33;;;19.30;99.90;;;;;;5010869;28;20264;-46
2022/05/20 02:02:40;;;;;;;3.30;1.67;;;19.20;99.90;;;;;;5010468;28;20297;-46
2022/05/20 02:05:14;;;;;;;2.10;2.10;;;19.20;99.90;;;;;;5010513;28;20210;-46
2022/05/20 02:07:45;;;;;;;2.57;2.13;;;19.10;99.90;;;;;;5009509;28;20657;-46
2022/05/20 02:10:18;;;;;;;1.77;1.77;;;19.10;99.90;;;;;;5003904;28;20572;-46
2022/05/20 02:12:51;;;;;;;2.00;1.90;;;19.00;99.90;;;;;;5011213;28;20203;-46
2022/05/20 02:15:22;;;;;;;2.13;1.93;;;19.00;99.90;;;;;;5009594;28;20319;-46
2022/05/20 02:17:54;;;;;;;2.07;1.97;;;19.00;99.90;;;;;;5010569;28;20285;-46
2022/05/20 02:20:26;;;;;;;2.07;1.97;;;19.00;99.90;;;;;;5011173;28;20739;-46
2022/05/20 02:22:56;;;;;;;1.93;1.70;;;19.00;99.90;;;;;;5011575;28;20207;-46
2022/05/20 02:25:28;;;;;;;2.13;2.00;;;18.90;99.90;;;;;;5011375;28;20278;-46
2022/05/20 02:28:02;;;;;;;2.37;2.27;;;18.90;99.90;;;;;;5010006;28;20656;-46
2022/05/20 02:30:33;;;;;;;1.67;1.63;;;18.90;99.90;;;;;;5009619;28;20266;-46
2022/05/20 02:33:06;;;;;;;6.33;2.63;;;18.90;99.90;;;;;;5010317;28;20202;-45
2022/05/20 02:35:33;;;;;;;2.70;2.60;;;18.90;99.90;;;;;;5009670;28;20208;-46
2022/05/20 02:38:06;;;;;;;2.30;2.20;;;18.90;99.90;;;;;;5010124;28;20832;-46
2022/05/20 02:40:33;;;;;;;2.20;2.20;;;18.90;99.90;;;;;;5009640;28;20261;-46
2022/05/20 02:43:01;;;;;;;2.03;1.70;;;18.90;99.90;;;;;;5010730;28;20203;-46
2022/05/20 02:45:28;;;;;;;2.30;2.03;;;18.90;99.90;;;;;;5010693;28;20274;-46
2022/05/20 02:47:55;;;;;;;2.07;2.07;;;18.80;99.90;;;;;;5007514;28;20227;-46
2022/05/20 02:50:22;;;;;;;2.10;2.00;;;18.90;99.90;;;;;;5010770;28;20631;-46
2022/05/20 02:52:49;;;;;;;1.77;1.70;;;18.80;99.90;;;;;;5009303;28;20203;-46
2022/05/20 02:55:17;;;;;;;1.97;1.87;;;18.80;99.90;;;;;;5014898;28;20199;-46
2022/05/20 02:57:44;;;;;;;2.03;1.80;;;18.70;99.90;;;;;;5013343;28;20701;-46
2022/05/20 03:05:43;;;;;;;2.43;2.07;;;18.70;99.90;;;;;;5014179;28;20301;-46
2022/05/20 03:08:11;;;;;;;3.40;1.87;;;18.70;99.90;;;;;;5014729;28;20767;-46
2022/05/20 03:10:38;;;;;;;3.37;2.13;;;18.60;99.90;;;;;;5014599;28;20207;-46
2022/05/20 03:13:08;;;;;;;2.00;1.90;;;18.70;99.90;;;;;;5013243;28;20643;-46
2022/05/20 03:15:37;;;;;;;1.87;1.87;;;18.70;99.90;;;;;;5012900;28;20207;-46
2022/05/20 03:18:04;;;;;;;1.73;1.73;;;18.60;99.90;;;;;;5012398;28;20208;-46
2022/05/20 03:20:32;;;;;;;2.10;2.10;;;18.70;99.90;;;;;;5011340;28;20250;-46
2022/05/20 03:22:59;;;;;;;3.20;2.23;;;18.70;99.90;;;;;;5014095;28;20213;-46
2022/05/20 03:25:26;;;;;;;2.10;2.00;;;18.60;99.90;;;;;;5012056;28;20219;-46
2022/05/20 03:27:53;;;;;;;1.90;1.90;;;18.60;99.90;;;;;;5010434;28;20316;-46
2022/05/20 03:30:21;;;;;;;1.70;1.60;;;18.60;99.90;;;;;;5012514;28;20207;-46
2022/05/20 03:32:49;;;;;;;4.93;2.03;;;18.70;99.90;;;;;;5012461;28;20195;-46
2022/05/20 03:35:16;;;;;;;1.87;1.77;;;18.70;99.90;;;;;;5012233;28;20195;-45
2022/05/20 03:37:43;;;;;;;2.20;2.10;;;18.60;99.90;;;;;;5013048;28;20219;-46
2022/05/20 03:40:11;;;;;;;2.13;2.00;;;18.60;99.90;;;;;;5010447;28;20203;-46
2022/05/20 03:42:38;;;;;;;2.17;2.07;;;18.60;99.90;;;;;;5013543;28;20203;-46
2022/05/20 03:45:06;;;;;;;1.97;1.87;;;18.60;99.90;;;;;;5013840;28;20207;-46
2022/05/20 03:47:33;;;;;;;2.20;2.10;;;18.60;99.90;;;;;;5008624;28;20265;-48
2022/05/20 03:50:02;;;;;;;1.90;1.80;;;18.50;99.90;;;;;;5003537;28;20200;-46
2022/05/20 03:52:29;;;;;;;2.27;2.17;;;18.50;99.90;;;;;;5004830;28;20213;-46
2022/05/20 03:54:56;;;;;;;2.30;2.20;;;18.60;99.90;;;;;;5010772;28;20199;-46
2022/05/20 03:57:26;;;;;;;2.30;2.17;;;18.50;99.90;;;;;;5006400;28;20310;-46
2022/05/20 03:59:54;;;;;;;2.67;2.57;;;18.50;99.90;;;;;;5003373;28;20207;-46
2022/05/20 04:02:20;;;;;;;1.80;1.80;;;18.50;99.90;;;;;;5001655;28;20207;-46
2022/05/20 04:04:52;;;;;;;2.30;2.10;;;18.50;99.90;;;;;;5000517;28;20214;-46
2022/05/20 04:07:22;;;;;;;2.43;2.03;;;18.50;99.90;;;;;;4998217;28;20226;-46
2022/05/20 04:09:50;;;;;;;2.77;1.77;;;18.60;99.90;;;;;;5003273;28;20203;-46
2022/05/20 04:12:25;;;;;;;2.27;2.20;;;18.50;99.90;;;;;;4996631;28;20199;-46
2022/05/20 04:14:53;;;;;;;2.60;1.93;;;18.50;99.90;;;;;;4996763;28;20262;-46
2022/05/20 04:17:20;;;;;;;2.17;1.83;;;18.50;99.90;;;;;;5000533;28;20230;-45
2022/05/20 04:19:47;;;;;;;2.07;1.80;;;18.50;99.90;;;;;;5003926;28;20196;-46
2022/05/20 04:22:18;;;;;;;1.50;1.50;;;18.60;99.90;;;;;;5010014;28;20253;-46
2022/05/20 04:24:47;;;;;;;3.00;1.70;;;18.60;99.90;;;;;;4997643;28;20204;-46
2022/05/20 04:27:15;;;;;;;2.27;2.07;;;18.60;99.90;;;;;;4998438;28;20265;-46
2022/05/20 04:29:42;;;;;;;6.03;2.00;;;18.70;99.90;;;;;;4997913;28;20206;-46
2022/05/20 04:32:10;;;;;;;1.70;1.60;;;18.70;99.90;;;;;;5005341;28;20203;-46
2022/05/20 04:34:38;;;;;;;3.70;1.97;;;18.80;99.90;;;;;;4999858;28;20208;-46
2022/05/20 04:37:06;;;;;;;1.80;1.70;;;18.80;99.90;;;;;;5007243;28;20207;-46
2022/05/20 04:39:33;;;;;;;1.90;1.90;;;18.90;99.90;;;;;;4998249;28;20203;-46
2022/05/20 04:47:34;;;;;;;2.93;2.03;;;19.00;99.90;;;;;;5000286;28;20285;-45
2022/05/20 04:50:01;;;;;;;2.03;1.93;;;19.10;99.90;;;;;;5002648;28;20674;-45
2022/05/20 04:52:28;;;;;;;2.23;1.80;;;19.20;99.90;;;;;;4993782;28;20291;-46
2022/05/20 04:54:54;;;;;;;1.93;1.83;;;19.40;99.90;;;;;;4995971;28;20575;-46
2022/05/20 04:57:27;;;;;;;3.93;1.40;;;19.60;99.90;;;;;;4996666;28;20218;-46
2022/05/20 04:59:57;;;;;;;2.20;2.03;;;19.90;99.90;;;;;;5001205;28;20208;-46
2022/05/20 05:02:25;;;;;;;1.90;1.80;;;20.30;99.90;;;;;;4996522;28;20203;-46
2022/05/20 05:04:52;;;;;;;2.30;2.10;;;20.70;99.90;;;;;;5001944;28;20619;-47
2022/05/20 05:07:19;;;;;;;2.23;2.07;;;21.10;99.90;;;;;;5008109;28;20254;-46
2022/05/20 05:09:46;;;;;;;4.20;1.80;;;21.50;99.90;;;;;;5009527;28;20665;-46
2022/05/20 05:12:15;;;;;;;1.87;1.77;;;22.10;99.90;;;;;;4995578;28;20228;-46
2022/05/20 05:14:46;;;;;;;2.10;2.00;;;22.60;99.90;;;;;;4998295;28;20246;-46
2022/05/20 05:17:17;;;;;;;1.83;1.80;;;23.10;99.90;;;;;;5001469;28;20220;-46
2022/05/20 05:19:45;;;;;;;1.60;1.60;;;23.40;99.90;;;;;;4997927;28;20739;-46
2022/05/20 05:22:13;;;;;;;1.70;1.60;;;23.50;99.90;;;;;;5058415;22;20483;-52
2022/05/20 05:24:41;;;;;;;2.20;2.00;;;23.80;99.90;;;;;;5041174;28;20212;-52
2022/05/20 05:27:08;;;;;;;1.80;1.70;;;24.20;99.90;;;;;;5049933;28;20255;-52
2022/05/20 05:29:38;;;;;;;1.90;1.80;;;24.70;99.90;;;;;;5050440;28;20204;-52
2022/05/20 05:32:08;;;;;;;5.20;1.80;;;25.00;99.90;;;;;;5044312;28;20810;-52
2022/05/20 05:34:35;;;;;;;1.43;1.33;;;25.10;99.90;;;;;;5034268;28;20193;-52
2022/05/20 05:37:03;;;;;;;1.73;1.63;;;25.10;99.90;;;;;;5047952;28;20194;-52
2022/05/20 05:39:31;;;;;;;1.73;1.63;;;25.40;99.90;;;;;;5040903;28;20251;-52
2022/05/20 05:41:59;;;;;;;1.70;1.63;;;25.50;99.90;;;;;;5047176;28;20646;-52
2022/05/20 05:44:26;;;;;;;2.00;1.67;;;26.00;99.90;;;;;;5044432;28;20688;-52
2022/05/20 05:46:53;;;;;;;1.53;1.43;;;26.10;99.90;;;;;;5047835;28;20217;-52
2022/05/20 05:49:22;;;;;;;2.40;2.00;;;25.80;99.90;;;;;;5049909;28;20235;-52
2022/05/20 05:51:49;;;;;;;1.80;1.70;;;25.80;99.90;;;;;;5049479;28;20213;-52
2022/05/20 05:54:18;;;;;;;4.73;2.27;;;25.30;99.90;;;;;;5048477;28;20212;-52
2022/05/20 05:56:45;;;;;;;3.17;1.90;;;25.20;99.90;;;;;;5042025;28;20194;-52
2022/05/20 05:59:12;;;;;;;2.33;1.83;;;25.50;99.90;;;;;;5039462;28;20207;-52
2022/05/20 06:01:39;;;;;;;1.57;1.50;;;25.90;99.90;;;;;;5033414;28;20295;-52
2022/05/20 06:04:06;;;;;;;2.50;1.70;;;25.60;99.90;;;;;;5042033;28;20343;-52
2022/05/20 06:06:34;;;;;;;1.83;1.73;;;25.80;99.90;;;;;;5049999;28;20225;-52
2022/05/20 06:09:01;;;;;;;2.90;1.70;;;25.80;99.90;;;;;;5050121;28;20213;-52
2022/05/20 06:11:29;;;;;;;2.07;1.20;;;25.50;99.90;;;;;;5044964;28;20313;-52
2022/05/20 06:13:56;;;;;;;1.73;1.73;;;26.10;99.90;;;;;;5049678;28;20210;-52
2022/05/20 06:16:23;;;;;;;2.07;1.93;;;26.30;99.90;;;;;;5048645;28;20271;-52
2022/05/20 06:18:51;;;;;;;1.80;1.40;;;26.40;99.90;;;;;;5050598;28;20236;-52
2022/05/20 06:21:18;;;;;;;2.67;1.90;;;26.50;99.90;;;;;;5041885;28;20292;-52
2022/05/20 06:23:47;;;;;;;1.50;1.50;;;27.20;99.90;;;;;;5046028;28;20198;-52
2022/05/20 06:26:14;;;;;;;2.80;1.77;;;27.70;99.90;;;;;;5033852;28;20237;-52
2022/05/20 06:28:41;;;;;;;3.83;1.90;;;28.00;99.90;;;;;;5038055;28;20613;-52
2022/05/20 06:31:08;;;;;;;2.83;1.60;;;27.80;99.90;;;;;;5042155;28;20221;-52
2022/05/20 06:33:35;;;;;;;1.67;1.67;;;27.60;99.90;;;;;;5044243;28;20711;-51
2022/05/20 06:41:32;;;;;;;2.00;1.80;;;27.70;99.90;;;;;;5042888;28;20237;-52
2022/05/20 06:43:59;;;;;;;16.65;11.73;;;28.40;99.90;;;;;;5049947;28;20742;-52
2022/05/20 06:46:26;;;;;;;2.17;2.03;;;28.40;98.60;;;;;;5047160;28;20225;-51
2022/05/20 06:48:56;;;;;;;3.00;1.30;;;27.40;98.20;;;;;;5053176;28;20205;-52
2022/05/20 06:51:25;;;;;;;2.67;1.60;;;26.10;99.90;;;;;;5053808;28;20221;-51
2022/05/20 06:53:54;;;;;;;1.70;1.70;;;25.60;99.90;;;;;;5052026;28;20616;-52
2022/05/20 06:56:24;;;;;;;3.00;1.70;;;26.00;99.90;;;;;;5051533;28;20259;-52
2022/05/20 06:58:51;;;;;;;1.73;1.33;;;26.90;99.90;;;;;;5053109;28;20213;-51
2022/05/20 07:01:18;;;;;;;1.83;1.73;;;27.90;99.90;;;;;;5053762;28;20707;-53
2022/05/20 07:03:45;;;;;;;1.50;1.27;;;28.30;99.20;;;;;;5052782;28;20622;-52
2022/05/20 07:06:13;;;;;;;1.50;1.50;;;28.40;99.40;;;;;;5052925;28;20267;-53
2022/05/20 07:08:43;;;;;;;1.80;1.73;;;28.40;99.60;;;;;;5043581;28;20259;-52
2022/05/20 07:11:12;;;;;;;2.17;1.50;;;28.10;99.10;;;;;;5049716;28;20221;-52
2022/05/20 07:13:39;;;;;;;2.50;1.90;;;27.20;99.70;;;;;;5047326;28;20198;-52
2022/05/20 07:16:07;;;;;;;1.83;1.70;;;26.90;99.90;;;;;;5053047;28;20201;-52
2022/05/20 07:18:35;;;;;;;2.15;1.40;;;27.50;99.90;;;;;;5046290;28;20206;-52
2022/05/20 07:21:02;;;;;;;2.15;1.63;;;26.90;99.90;;;;;;5043611;28;20310;-52
2022/05/20 07:23:31;;;;;;;2.07;1.60;;;26.20;99.90;;;;;;5051323;28;20207;-52
2022/05/20 07:25:59;;;;;;;1.83;1.77;;;26.60;99.90;;;;;;5048114;28;20560;-52
2022/05/20 07:28:29;;;;;;;6.78;1.90;;;26.90;99.90;;;;;;5041286;28;20276;-52
2022/05/20 07:30:56;;;;;;;1.77;1.67;;;27.20;99.90;;;;;;5035428;28;20222;-52
2022/05/20 07:33:23;;;;;;;1.98;1.88;;;28.00;99.90;;;;;;5040590;28;20195;-52
2022/05/20 07:35:50;;;;;;;2.88;1.50;;;29.20;99.20;;;;;;5033530;28;20191;-52
2022/05/20 07:38:20;;;;;;;2.58;1.73;;;29.90;98.00;;;;;;5036296;28;20516;-52
2022/05/20 07:40:47;;;;;;;2.70;1.67;;;30.40;97.50;;;;;;5047965;28;20218;-52
2022/05/20 07:43:14;;;;;;;1.80;1.70;;;30.70;96.90;;;;;;5049212;28;20214;-52
2022/05/20 07:45:44;;;;;;;2.55;1.55;;;31.40;94.80;;;;;;5041905;28;20199;-52
2022/05/20 07:48:11;;;;;;;1.77;1.60;;;31.40;95.10;;;;;;5044943;28;20209;-52
2022/05/20 07:50:42;;;;;;;1.85;1.75;;;31.10;94.00;;;;;;5050766;28;20221;-52
2022/05/20 07:53:33;;;;;;;2.30;1.73;;;30.80;94.30;;;;;;5036941;28;20194;-52
2022/05/20 07:56:03;;;;;;;1.50;1.40;;;31.10;95.30;;;;;;5047119;28;20621;-53
2022/05/20 07:58:34;;;;;;;3.22;1.38;;;31.80;95.30;;;;;;5043096;28;20281;-53
2022/05/20 08:01:03;;;;;;;1.70;1.52;;;32.30;93.30;;;;;;5052242;28;20222;-53
2022/05/20 08:06:17;;;;;;;1.73;1.70;;;32.50;93.80;;;;;;5039067;28;20200;-53
2022/05/20 08:08:44;;;;;;;3.67;1.98;;;32.70;93.30;;;;;;5038220;28;20190;-53
2022/05/20 08:11:11;;;;;;;2.63;1.50;;;32.80;93.10;;;;;;5049705;28;20271;-53
2022/05/20 08:13:38;;;;;;;3.28;1.55;;;32.50;92.00;;;;;;5048852;28;20266;-53
2022/05/20 08:16:07;;;;;;;2.97;1.98;;;32.70;91.30;;;;;;5052487;28;20198;-53
2022/05/20 08:18:34;;;;;;;1.42;1.42;;;32.70;92.00;;;;;;5052635;28;20725;-53
2022/05/20 08:21:01;;;;;;;1.95;1.40;;;33.40;90.40;;;;;;5052638;28;20251;-53
2022/05/20 08:23:28;;;;;;;2.35;1.73;;;33.50;91.50;;;;;;5052550;28;20208;-53
2022/05/20 08:25:55;;;;;;;1.67;1.58;;;33.40;91.60;;;;;;5051978;28;20267;-53
2022/05/20 08:28:23;;;;;;;3.10;1.45;;;32.90;86.70;;;;;;5052213;28;20636;-53
2022/05/20 08:30:50;;;;;;;1.52;1.42;;;33.30;91.90;;;;;;5052255;28;20218;-53
2022/05/20 08:33:18;;;;;;;1.63;1.58;;;33.50;91.20;;;;;;5052350;28;20202;-53
2022/05/20 08:35:45;;;;;;;3.60;1.63;;;34.10;90.90;;;;;;5050112;28;20197;-53
2022/05/20 08:38:12;;;;;;;1.85;1.73;;;34.10;88.90;;;;;;5051989;28;20267;-53
2022/05/20 08:40:44;;;;;;;1.40;1.25;;;33.70;88.00;;;;;;5052197;28;20226;-53
2022/05/20 08:43:12;;;;;;;2.97;1.92;;;33.70;87.70;;;;;;5052324;28;20290;-53
2022/05/20 08:45:39;;;;;;;2.75;1.55;;;34.10;84.10;;;;;;5052254;28;20252;-53
2022/05/20 08:48:10;;;;;;;2.67;2.00;;;34.30;85.50;;;;;;5052101;28;20710;-54
2022/05/20 08:50:45;;;;;;;2.13;1.90;;;34.40;86.60;;;;;;5051015;28;20604;-54
2022/05/20 08:53:18;;;;;;;1.40;1.40;;;34.60;85.80;;;;;;5043838;28;20258;-53
2022/05/20 08:55:45;;;;;;;1.67;1.58;;;35.00;81.40;;;;;;5052195;28;20212;-53
2022/05/20 08:58:19;;;;;;;1.58;1.48;;;35.40;84.30;;;;;;5051984;28;20667;-54
2022/05/20 09:00:46;;;;;;;1.45;1.45;;;35.00;84.90;;;;;;5051972;28;20225;-53
2022/05/20 09:03:13;;;;;;;3.25;1.67;;;35.30;82.30;;;;;;5050575;28;20267;-53
2022/05/20 09:05:42;;;;;;;1.60;1.50;;;35.40;84.60;;;;;;5051913;28;20194;-53
2022/05/20 09:08:24;;;;;;;1.20;1.17;;;35.50;81.70;;;;;;5032025;28;20233;-53
2022/05/20 09:10:53;;;;;;;1.90;1.90;;;36.00;83.90;;;;;;5031830;28;20218;-53
2022/05/20 09:13:23;;;;;;;2.03;1.92;;;36.00;76.10;;;;;;5031521;28;20213;-53
2022/05/20 09:16:01;;;;;;;3.08;2.88;;;35.90;77.50;;;;;;5032907;28;20265;-53
2022/05/20 09:18:36;;;;;;;2.92;2.65;;;36.10;83.80;;;;;;5051365;28;20263;-55
2022/05/20 09:21:06;;;;;;;2.00;1.90;;;35.90;81.80;;;;;;5051386;28;20667;-54
2022/05/20 09:23:33;;;;;;;2.05;1.75;;;35.70;76.80;;;;;;5049243;28;20644;-54
2022/05/20 09:26:04;;;;;;;2.17;1.75;;;36.00;77.30;;;;;;5049417;28;20205;-54
2022/05/20 09:28:36;;;;;;;2.42;1.40;;;36.10;75.80;;;;;;5044369;28;20222;-53
2022/05/20 09:31:13;;;;;;;2.95;1.60;;;36.20;79.60;;;;;;5050054;28;20225;-55
2022/05/20 09:33:41;;;;;;;1.92;1.83;;;36.40;80.10;;;;;;5046310;28;20198;-52
2022/05/20 09:36:09;;;;;;;1.95;1.85;;;36.20;80.80;;;;;;5043643;28;20289;-54
2022/05/20 09:38:39;;;;;;;1.60;1.50;;;36.40;77.90;;;;;;5045717;28;20244;-53
2022/05/20 09:41:16;;;;;;;1.70;1.70;;;36.50;73.90;;;;;;5050203;28;20271;-52
2022/05/20 09:43:46;;;;;;;3.97;3.67;;;36.40;75.50;;;;;;5040880;28;20210;-52
2022/05/20 09:46:31;;;;;;;3.63;3.35;;;35.70;83.70;;;;;;5048444;28;20320;-52
2022/05/20 09:49:03;;;;;;;4.03;3.60;;;35.50;83.60;;;;;;5050126;28;20263;-52
2022/05/20 09:51:38;;;;;;;3.78;3.47;;;35.50;86.30;;;;;;5050562;28;20778;-52
2022/05/20 09:54:20;;;;;;;6.13;3.75;;;34.50;88.00;;;;;;5049719;28;20237;-52
2022/05/20 09:56:58;;;;;;;3.75;3.42;;;33.60;91.20;;;;;;5049922;28;20782;-52
2022/05/20 09:59:36;;;;;;;4.60;3.90;;;33.30;90.20;;;;;;5050971;28;20197;-53
2022/05/20 10:02:08;;;;;;;3.17;3.08;;;33.60;91.20;;;;;;5034403;28;20230;-51
2022/05/20 10:04:51;;;;;;;3.72;3.53;;;33.00;90.80;;;;;;5038716;28;20212;-53
2022/05/20 10:07:30;;;;;;;4.13;3.92;;;33.60;91.40;;;;;;5053626;28;20232;-52
2022/05/20 10:10:04;;;;;;;4.07;3.83;;;33.20;92.20;;;;;;5052658;28;20204;-52
2022/05/20 10:12:34;;;;;;;4.30;4.10;;;32.80;93.60;;;;;;5053301;28;20294;-52
2022/05/20 10:15:12;;;;;;;4.55;4.35;;;32.70;93.20;;;;;;5053026;28;20251;-53
2022/05/20 10:18:03;;;;;;;4.43;4.18;;;32.90;92.40;;;;;;5052329;28;20198;-52
2022/05/20 10:20:35;;;;;;;4.10;3.92;;;33.20;93.00;;;;;;5036246;28;20197;-52
2022/05/20 10:23:12;;;;;;;4.57;4.28;;;32.90;92.00;;;;;;5052728;28;20201;-54
2022/05/20 10:25:46;;;;;;;4.43;4.15;;;32.70;92.70;;;;;;5048692;28;20201;-54
2022/05/20 10:34:01;;;;;;;4.82;4.38;;;32.90;92.00;;;;;;5050603;28;20224;-53
2022/05/20 10:36:39;;;;;;;4.22;3.90;;;32.30;91.50;;;;;;5041694;28;20280;-53
2022/05/20 10:39:16;;;;;;;4.00;3.70;;;32.30;93.00;;;;;;5050782;28;20197;-54
2022/05/20 10:42:06;;;;;;;5.03;4.65;;;31.90;91.30;;;;;;5048937;28;20560;-53
2022/05/20 10:50:54;;;;;;;4.75;4.55;;;31.00;94.90;;;;;;5044973;28;20240;-52
2022/05/20 10:53:31;;;;;;;4.07;3.97;;;31.20;94.30;;;;;;5043889;28;20288;-53
2022/05/20 10:56:27;;;;;;;5.60;4.82;;;31.00;93.90;;;;;;5041829;28;20233;-53
2022/05/20 10:59:17;;;;;;;5.30;4.85;;;30.60;96.30;;;;;;5047930;28;20209;-53
2022/05/20 11:01:58;;;;;;;4.85;3.65;;;30.10;94.90;;;;;;5048335;28;20222;-53
2022/05/20 11:04:52;;;;;;;3.97;3.78;;;30.30;93.20;;;;;;5042720;28;20626;-52
2022/05/20 11:07:45;;;;;;;4.35;4.15;;;30.00;93.90;;;;;;5042420;28;20212;-52
2022/05/20 11:10:46;;;;;;;4.20;4.00;;;29.80;95.80;;;;;;5046936;28;20263;-51
2022/05/20 11:13:24;;;;;;;3.70;3.50;;;29.70;96.50;;;;;;5027522;28;20576;-53
2022/05/20 11:16:17;;;;;;;3.28;3.08;;;30.00;94.00;;;;;;5047683;28;20213;-52
2022/05/20 11:19:07;;;;;;;4.03;3.83;;;30.20;92.70;;;;;;5050747;28;20202;-53
2022/05/20 11:21:58;;;;;;;4.70;4.40;;;29.80;93.80;;;;;;5047989;28;20237;-53
2022/05/20 11:24:51;;;;;;;4.60;4.32;;;29.70;93.80;;;;;;5048023;28;20205;-54
2022/05/20 11:27:45;;;;;;;4.70;4.50;;;29.70;93.70;;;;;;5045832;28;20202;-53
2022/05/20 11:30:31;;;;;;;4.70;4.40;;;29.80;94.30;;;;;;5042244;28;20202;-53
2022/05/20 11:33:13;;;;;;;9.50;4.35;;;29.90;95.60;;;;;;5051089;28;20205;-53
2022/05/20 11:36:02;;;;;;;4.95;4.65;;;29.90;95.00;;;;;;5052639;28;20609;-54
2022/05/20 11:39:01;;;;;;;4.65;4.32;;;30.10;95.20;;;;;;5046539;28;20259;-52
2022/05/20 11:41:36;;;;;;;4.30;3.95;;;30.10;96.00;;;;;;5049790;28;20642;-53
2022/05/20 11:44:39;;;;;;;4.18;3.90;;;29.90;96.90;;;;;;5051346;28;20267;-52
2022/05/20 11:47:28;;;;;;;9.65;4.40;;;30.20;94.60;;;;;;5051824;28;20304;-53
2022/05/20 11:50:23;;;;;;;4.45;4.25;;;30.20;95.10;;;;;;5050058;28;20635;-52
2022/05/20 11:52:59;;;;;;;5.25;4.85;;;30.10;95.40;;;;;;5050616;28;20212;-52
2022/05/20 11:55:36;;;;;;;3.40;3.20;;;30.20;94.40;;;;;;5052226;28;20572;-52
2022/05/20 11:58:06;;;;;;;4.07;3.72;;;30.30;95.00;;;;;;5051697;28;20198;-54
2022/05/20 12:00:36;;;;;;;3.80;3.65;;;30.30;93.10;;;;;;5051524;28;20642;-53
2022/05/20 12:03:08;;;;;;;3.63;3.53;;;30.20;92.50;;;;;;5046159;28;20233;-54
2022/05/20 12:05:40;;;;;;;4.03;3.72;;;30.20;93.30;;;;;;5047490;28;20277;-52
2022/05/20 12:08:07;;;;;;;3.97;3.75;;;30.10;92.30;;;;;;5051357;28;20664;-52
2022/05/20 12:10:45;;;;;;;3.60;3.38;;;29.90;93.10;;;;;;5050738;28;20229;-54
2022/05/20 12:13:17;;;;;;;3.80;3.30;;;29.80;93.10;;;;;;5044016;28;20671;-54
2022/05/20 12:15:48;;;;;;;3.35;3.15;;;29.70;91.70;;;;;;5052041;28;20263;-53
2022/05/20 12:24:34;;;;;;;4.20;3.42;;;29.70;90.40;;;;;;5052503;28;20251;-54
2022/05/20 12:27:02;;;;;;;3.08;2.88;;;29.90;92.10;;;;;;5051478;28;20202;-54
2022/05/20 12:29:59;;;;;;;3.05;2.70;;;30.00;91.70;;;;;;5051443;28;20222;-54
2022/05/20 12:32:43;;;;;;;2.67;2.47;;;30.00;90.90;;;;;;5006139;28;20276;-51
2022/05/20 12:35:15;;;;;;;2.83;2.72;;;30.10;93.00;;;;;;5049444;28;20271;-53
2022/05/20 12:38:00;;;;;;;2.63;2.50;;;30.20;91.80;;;;;;5050462;28;20283;-52
2022/05/20 12:41:13;;;;;;;3.33;3.03;;;30.10;90.30;;;;;;5045635;28;20202;-52
2022/05/20 12:43:59;;;;;;;3.85;3.03;;;30.10;90.10;;;;;;5014955;28;20663;-52
2022/05/20 12:47:00;;;;;;;4.25;2.72;;;30.10;91.80;;;;;;5046023;28;20209;-52
2022/05/20 12:49:32;;;;;;;5.22;2.85;;;30.10;90.10;;;;;;5045381;28;20563;-53
2022/05/20 12:52:11;;;;;;;2.50;2.38;;;30.30;90.60;;;;;;5050704;28;20225;-52
2022/05/20 12:54:41;;;;;;;3.78;3.55;;;30.40;87.60;;;;;;5051146;28;20206;-52
2022/05/20 12:57:12;;;;;;;3.28;3.08;;;30.50;92.20;;;;;;5051219;28;20194;-52
2022/05/20 12:59:39;;;;;;;2.70;2.60;;;30.60;92.70;;;;;;5049908;28;20194;-52
2022/05/20 13:02:14;;;;;;;3.88;2.67;;;30.70;90.60;;;;;;5049887;28;20687;-53
2022/05/20 13:04:46;;;;;;;3.45;3.15;;;30.70;90.20;;;;;;5050881;28;20237;-52
2022/05/20 13:07:18;;;;;;;4.30;3.05;;;30.60;86.60;;;;;;5042648;28;20197;-52
2022/05/20 13:09:46;;;;;;;5.93;2.45;;;30.60;92.20;;;;;;5049849;28;20408;-53
2022/05/20 13:12:20;;;;;;;2.72;2.17;;;30.60;85.80;;;;;;5049870;28;20264;-52
2022/05/20 13:14:58;;;;;;;2.65;2.55;;;30.60;86.70;;;;;;5049524;28;20201;-53
2022/05/20 13:17:25;;;;;;;2.63;2.42;;;30.50;87.70;;;;;;5050758;28;20205;-53
2022/05/20 13:19:56;;;;;;;2.15;2.15;;;30.60;89.30;;;;;;5050526;28;20213;-53
2022/05/20 13:22:26;;;;;;;2.60;2.40;;;30.70;87.80;;;;;;5049982;28;20230;-53
2022/05/20 13:24:55;;;;;;;6.25;2.63;;;30.90;85.60;;;;;;5050578;28;20262;-53
2022/05/20 13:27:22;;;;;;;3.13;2.47;;;31.00;86.80;;;;;;5050702;28;20579;-52
2022/05/20 13:29:52;;;;;;;2.00;2.00;;;31.00;82.90;;;;;;5050801;28;20278;-53
2022/05/20 13:32:29;;;;;;;2.97;2.75;;;31.00;78.80;;;;;;5050528;28;20236;-53
2022/05/20 13:34:59;;;;;;;3.38;2.80;;;31.00;86.80;;;;;;5050425;28;20263;-52
2022/05/20 13:37:31;;;;;;;3.00;2.42;;;31.00;88.30;;;;;;5050214;28;20279;-52
2022/05/20 13:40:06;;;;;;;2.58;2.38;;;30.90;87.20;;;;;;5048858;28;20656;-52
2022/05/20 13:42:33;;;;;;;2.63;2.42;;;30.90;85.90;;;;;;5049884;28;20358;-52
2022/05/20 13:45:10;;;;;;;3.80;2.58;;;30.90;83.40;;;;;;5049505;28;20216;-52
2022/05/20 13:50:23;;;;;;;3.10;3.00;;;30.70;90.30;;;;;;5043675;28;20314;-53
2022/05/20 13:52:57;;;;;;;3.55;3.08;;;30.70;91.00;;;;;;5050019;28;20260;-53